Terminal Aerodrome Forecast
Issued by NWS Tallahassee, FL

Home | Current Version | Previous Version | Text Only | Print | Product List | Glossary On
Versions: 1 2 3 4 5 6 7 8 9 10 11 12 13
169
FTUS42 KTAE 091733
TAFTLH
TAF
KTLH 091733Z 0918/1018 27015G30KT P6SM FEW050
     FM092300 29010KT P6SM SKC
     FM101500 29010G15KT P6SM SKC=

USA.gov is the U.S. government's official web portal to all federal, state and local government web resources and services.